Time;durP1;ratioP1;P1;durP2;ratioP2;P2;SDS_P1;SDS_P2;PMS_P1;PMS_P2;Temp;Humidity;BMP_temperature;BMP_pressure;BME280_temperature;BME280_humidity;BME280_pressure;Samples;Min_cycle;Max_cycle;Signal;HPM_P1;HPM_P2
2021/12/18 00:00:43;;;;;;;4.28;3.88;;;10.20;99.90;;;;;;4954073;28;20498;-76
2021/12/18 00:03:09;;;;;;;4.65;4.25;;;10.20;99.90;;;;;;4952881;29;20034;-79
2021/12/18 00:05:35;;;;;;;6.13;5.05;;;10.20;99.90;;;;;;4953180;29;20384;-76
2021/12/18 00:08:01;;;;;;;6.50;5.40;;;10.20;99.90;;;;;;4952693;29;20028;-81
2021/12/18 00:10:26;;;;;;;5.68;5.07;;;10.20;99.90;;;;;;4953376;28;20023;-81
2021/12/18 00:12:52;;;;;;;6.07;5.07;;;10.10;99.90;;;;;;4954508;28;20034;-76
2021/12/18 00:15:23;;;;;;;6.20;5.05;;;10.10;99.90;;;;;;4953007;29;20023;-78
2021/12/18 00:17:49;;;;;;;6.53;5.07;;;10.10;99.90;;;;;;4952703;28;20042;-75
2021/12/18 00:20:17;;;;;;;4.60;4.20;;;10.10;99.90;;;;;;4953032;28;20043;-75
2021/12/18 00:22:43;;;;;;;4.65;4.15;;;10.20;99.90;;;;;;4952957;29;20490;-76
2021/12/18 00:25:09;;;;;;;5.63;5.07;;;10.20;99.90;;;;;;4952198;28;20122;-80
2021/12/18 00:27:35;;;;;;;6.95;4.07;;;10.20;99.90;;;;;;4952540;29;20023;-81
2021/12/18 00:30:02;;;;;;;4.30;3.90;;;10.20;99.90;;;;;;4951373;29;20055;-82
2021/12/18 00:32:28;;;;;;;5.75;4.03;;;10.20;99.90;;;;;;4953507;28;20503;-76
2021/12/18 00:34:53;;;;;;;4.38;3.50;;;10.20;99.90;;;;;;4952756;29;20107;-83
2021/12/18 00:37:19;;;;;;;4.57;3.78;;;10.20;99.90;;;;;;4952052;29;20109;-78
2021/12/18 00:39:54;;;;;;;4.72;4.25;;;10.20;99.90;;;;;;4952229;29;20396;-77
2021/12/18 00:44:48;;;;;;;4.95;4.45;;;10.20;99.90;;;;;;4952848;28;20043;-75
2021/12/18 00:47:14;;;;;;;4.63;4.07;;;10.20;99.90;;;;;;4952241;29;20062;-75
2021/12/18 00:49:39;;;;;;;5.15;4.43;;;10.20;99.90;;;;;;4951906;29;20023;-83
2021/12/18 00:52:05;;;;;;;5.25;4.72;;;10.20;99.90;;;;;;4951375;29;20357;-79
2021/12/18 00:54:31;;;;;;;4.85;4.32;;;10.20;99.90;;;;;;4951996;28;20037;-79
2021/12/18 00:56:58;;;;;;;4.30;3.90;;;10.20;99.90;;;;;;4952052;29;20027;-75
2021/12/18 00:59:23;;;;;;;5.32;4.82;;;10.20;99.90;;;;;;4952367;28;20031;-79
2021/12/18 01:01:49;;;;;;;5.57;4.30;;;10.20;99.90;;;;;;4952096;28;20027;-76
2021/12/18 01:04:15;;;;;;;4.78;4.25;;;10.20;99.90;;;;;;4947950;29;20026;-79
2021/12/18 01:06:41;;;;;;;4.90;4.07;;;10.20;99.90;;;;;;4932303;29;20034;-78
2021/12/18 01:09:06;;;;;;;5.82;4.75;;;10.20;99.90;;;;;;4934236;29;20032;-77
2021/12/18 01:11:44;;;;;;;6.00;4.97;;;10.20;99.90;;;;;;4932842;29;20027;-75
2021/12/18 01:14:38;;;;;;;5.88;4.97;;;10.10;99.90;;;;;;4932376;29;20039;-75
2021/12/18 01:24:51;;;;;;;4.43;4.03;;;10.00;99.90;;;;;;4932043;29;20031;-76
2021/12/18 01:27:17;;;;;;;4.88;4.38;;;10.10;99.90;;;;;;4928624;29;20473;-81
2021/12/18 01:29:43;;;;;;;4.70;4.30;;;10.00;99.90;;;;;;4930407;29;20390;-81
2021/12/18 01:32:09;;;;;;;4.63;4.22;;;10.00;99.90;;;;;;4932914;29;20636;-76
2021/12/18 01:34:36;;;;;;;4.93;4.32;;;10.00;99.90;;;;;;4932150;29;20028;-80
2021/12/18 01:37:02;;;;;;;4.20;3.80;;;10.00;99.90;;;;;;4932611;29;20028;-75
2021/12/18 01:39:28;;;;;;;4.97;4.07;;;10.00;99.90;;;;;;4932399;29;20048;-77
2021/12/18 01:44:49;;;;;;;4.93;4.47;;;10.10;99.90;;;;;;4933707;29;20380;-75
2021/12/18 01:52:39;;;;;;;4.32;3.92;;;10.00;99.90;;;;;;4933365;29;20127;-74
2021/12/18 01:55:06;;;;;;;4.93;4.43;;;10.00;99.90;;;;;;4931675;29;20051;-81
2021/12/18 01:57:32;;;;;;;4.90;4.38;;;10.00;99.90;;;;;;4933267;29;20038;-77
2021/12/18 01:59:58;;;;;;;5.93;4.40;;;10.00;99.90;;;;;;4933212;29;20049;-78
2021/12/18 02:02:24;;;;;;;5.70;5.10;;;10.00;99.90;;;;;;4932797;29;20031;-79
2021/12/18 02:04:50;;;;;;;4.40;4.00;;;10.00;99.90;;;;;;4933323;29;20027;-76
2021/12/18 02:07:17;;;;;;;4.65;4.10;;;10.00;99.90;;;;;;4931989;29;20083;-78
2021/12/18 02:09:59;;;;;;;4.75;4.28;;;10.00;99.90;;;;;;4932893;29;20370;-77
2021/12/18 02:12:35;;;;;;;6.85;4.07;;;10.10;99.90;;;;;;4931984;29;20027;-75
2021/12/18 02:23:01;;;;;;;6.80;5.03;;;9.90;99.90;;;;;;4932602;29;20036;-81
2021/12/18 02:25:30;;;;;;;6.45;5.50;;;9.90;99.90;;;;;;4931723;29;20134;-75
2021/12/18 02:27:55;;;;;;;5.88;5.25;;;9.90;99.90;;;;;;4931828;29;20061;-76
2021/12/18 02:30:22;;;;;;;5.65;4.95;;;9.90;99.90;;;;;;4930852;29;20079;-78
2021/12/18 02:32:52;;;;;;;5.95;5.30;;;9.90;99.90;;;;;;4932029;29;20036;-82
2021/12/18 02:35:30;;;;;;;6.63;5.97;;;9.90;99.90;;;;;;4931712;29;20044;-75
2021/12/18 02:38:12;;;;;;;5.90;5.30;;;9.90;99.90;;;;;;4931344;29;20067;-75
2021/12/18 02:43:13;;;;;;;5.22;4.15;;;9.80;99.90;;;;;;4932670;29;20028;-76
2021/12/18 02:45:39;;;;;;;5.22;4.72;;;9.80;99.90;;;;;;4932418;29;20079;-79
2021/12/18 02:48:05;;;;;;;5.28;4.75;;;9.90;99.90;;;;;;4932906;29;20529;-76
2021/12/18 02:50:30;;;;;;;5.20;4.70;;;9.90;99.90;;;;;;4931284;29;20581;-82
2021/12/18 02:52:56;;;;;;;5.57;4.75;;;9.90;99.90;;;;;;4931125;29;20028;-80
2021/12/18 02:55:22;;;;;;;6.03;4.50;;;9.90;99.90;;;;;;4931555;29;20030;-75
2021/12/18 02:57:47;;;;;;;5.78;4.70;;;9.90;99.90;;;;;;4946751;28;20090;-81
2021/12/18 03:00:13;;;;;;;5.78;5.00;;;10.00;99.90;;;;;;4932721;29;20089;-82
2021/12/18 03:02:42;;;;;;;5.00;4.50;;;10.00;99.90;;;;;;4933034;29;20555;-77
2021/12/18 03:05:12;;;;;;;6.07;4.53;;;10.00;99.90;;;;;;4932608;29;20088;-78
2021/12/18 03:07:38;;;;;;;4.70;4.20;;;10.00;99.90;;;;;;4934926;29;20078;-81
2021/12/18 03:23:48;;;;;;;5.95;4.93;;;9.90;99.90;;;;;;4936051;29;20111;-79
2021/12/18 03:26:14;;;;;;;5.80;5.20;;;9.90;99.90;;;;;;4933897;29;20023;-79
2021/12/18 03:28:40;;;;;;;7.57;5.85;;;9.90;99.90;;;;;;4934527;29;20027;-81
2021/12/18 03:31:06;;;;;;;6.18;5.38;;;9.90;99.90;;;;;;4934870;29;20380;-81
2021/12/18 03:33:32;;;;;;;6.07;5.38;;;9.90;99.90;;;;;;4935046;29;20031;-76
2021/12/18 03:35:58;;;;;;;6.20;5.60;;;9.90;99.90;;;;;;4934533;29;20472;-78
2021/12/18 03:38:23;;;;;;;6.40;5.80;;;9.80;99.90;;;;;;4936139;29;20020;-75
2021/12/18 03:40:49;;;;;;;7.05;6.35;;;9.80;99.90;;;;;;4934005;29;20432;-78
2021/12/18 03:43:15;;;;;;;6.35;5.75;;;9.70;99.90;;;;;;4934400;29;20588;-75
2021/12/18 03:45:40;;;;;;;6.53;5.82;;;9.70;99.90;;;;;;4934301;29;20495;-76
2021/12/18 03:48:06;;;;;;;7.18;5.68;;;9.70;99.90;;;;;;4933789;29;20023;-76
2021/12/18 03:50:32;;;;;;;5.80;5.20;;;9.60;99.90;;;;;;4934080;29;20015;-75
2021/12/18 03:52:58;;;;;;;6.07;5.45;;;9.60;99.90;;;;;;4934435;29;20039;-80
2021/12/18 03:55:23;;;;;;;5.25;4.75;;;9.50;99.90;;;;;;4933616;29;20027;-82
2021/12/18 03:57:49;;;;;;;4.40;4.00;;;9.50;99.90;;;;;;4934328;29;20035;-77
2021/12/18 04:00:16;;;;;;;4.82;4.10;;;9.60;99.90;;;;;;4933842;29;20629;-75
2021/12/18 04:02:43;;;;;;;5.43;4.72;;;9.60;99.90;;;;;;4933334;29;20020;-79
2021/12/18 04:05:10;;;;;;;4.90;4.40;;;9.60;99.90;;;;;;4935593;29;20051;-81
2021/12/18 04:07:41;;;;;;;5.93;5.32;;;9.60;99.90;;;;;;4935558;29;20035;-77
2021/12/18 04:10:14;;;;;;;6.35;5.70;;;9.60;99.90;;;;;;4934440;29;20498;-82
2021/12/18 04:12:39;;;;;;;5.50;4.88;;;9.50;99.90;;;;;;4933915;29;20024;-81
2021/12/18 04:15:06;;;;;;;5.55;4.97;;;9.50;99.90;;;;;;4933203;29;20099;-76
2021/12/18 04:17:31;;;;;;;5.65;4.63;;;9.50;99.90;;;;;;4933354;29;20046;-75
2021/12/18 04:19:57;;;;;;;4.90;4.40;;;9.50;99.90;;;;;;4933229;29;20091;-75
2021/12/18 04:22:23;;;;;;;4.63;4.15;;;9.50;99.90;;;;;;4932126;29;20024;-75
2021/12/18 04:24:49;;;;;;;5.15;4.32;;;9.50;99.90;;;;;;4932685;29;20043;-75
2021/12/18 04:27:15;;;;;;;4.85;4.30;;;9.50;99.90;;;;;;4922740;29;20524;-74
2021/12/18 04:29:40;;;;;;;4.00;3.60;;;9.50;99.90;;;;;;4944908;29;20142;-74
2021/12/18 04:32:06;;;;;;;4.63;4.15;;;9.60;99.90;;;;;;4933235;29;20019;-74
2021/12/18 04:34:32;;;;;;;5.47;4.68;;;9.50;99.90;;;;;;4934615;29;20476;-75
2021/12/18 04:36:57;;;;;;;5.72;4.75;;;9.50;99.90;;;;;;4931885;29;20026;-73
2021/12/18 04:39:23;;;;;;;6.80;5.68;;;9.50;99.90;;;;;;4945629;29;20082;-75
2021/12/18 04:41:51;;;;;;;5.63;4.60;;;9.40;99.90;;;;;;4953801;28;20151;-74
2021/12/18 04:44:18;;;;;;;5.05;4.53;;;9.40;99.90;;;;;;4913535;29;20063;-74
2021/12/18 04:46:44;;;;;;;5.28;4.78;;;9.40;99.90;;;;;;4929891;29;20020;-76
2021/12/18 04:49:09;;;;;;;5.90;4.50;;;9.40;99.90;;;;;;4929689;29;20024;-75
2021/12/18 04:51:35;;;;;;;5.43;4.47;;;9.50;99.90;;;;;;4914977;29;20035;-75
2021/12/18 04:54:01;;;;;;;5.85;4.85;;;9.50;99.90;;;;;;4930180;29;20035;-74
2021/12/18 04:56:27;;;;;;;7.18;6.00;;;9.50;99.90;;;;;;4951765;29;20407;-74
2021/12/18 04:58:52;;;;;;;7.47;6.00;;;9.50;99.90;;;;;;4932231;29;20118;-74
2021/12/18 05:01:18;;;;;;;6.78;5.97;;;9.50;99.90;;;;;;4932836;29;20246;-74
2021/12/18 05:03:45;;;;;;;5.88;5.10;;;9.40;99.90;;;;;;4932658;29;20051;-74
2021/12/18 05:06:11;;;;;;;6.03;5.43;;;9.40;99.90;;;;;;4932390;29;20024;-74
2021/12/18 05:08:37;;;;;;;6.68;5.68;;;9.50;99.90;;;;;;4932410;29;20369;-75
2021/12/18 05:11:02;;;;;;;6.40;5.35;;;9.50;99.90;;;;;;4932721;29;20028;-75
2021/12/18 05:13:28;;;;;;;5.22;4.68;;;9.50;99.90;;;;;;4931903;29;20023;-74
2021/12/18 05:15:53;;;;;;;5.82;5.22;;;9.50;99.90;;;;;;4933018;29;20067;-77
2021/12/18 05:18:19;;;;;;;7.05;5.68;;;9.50;99.90;;;;;;4932381;29;20078;-75
2021/12/18 05:20:45;;;;;;;6.78;5.72;;;9.60;99.90;;;;;;4932154;29;20452;-73
2021/12/18 05:23:10;;;;;;;6.57;5.20;;;9.50;99.90;;;;;;4932859;29;20468;-73
2021/12/18 05:25:36;;;;;;;7.82;5.65;;;9.50;99.90;;;;;;4931626;29;20031;-73
2021/12/18 05:28:01;;;;;;;6.05;5.45;;;9.60;99.90;;;;;;4931995;29;20134;-78
2021/12/18 05:30:27;;;;;;;5.93;5.13;;;9.50;99.90;;;;;;4950935;29;20071;-73
2021/12/18 05:32:53;;;;;;;6.95;4.82;;;9.50;99.90;;;;;;4934891;29;20027;-78
2021/12/18 05:35:18;;;;;;;5.25;4.75;;;9.50;99.90;;;;;;4935476;29;20081;-75
2021/12/18 05:37:49;;;;;;;6.82;5.88;;;9.50;99.90;;;;;;4952706;29;20118;-73
2021/12/18 05:40:21;;;;;;;4.90;4.40;;;9.50;99.90;;;;;;4951893;29;20130;-75
2021/12/18 05:42:48;;;;;;;5.45;4.18;;;9.40;99.90;;;;;;4935358;29;20468;-74
2021/12/18 05:45:14;;;;;;;5.25;3.72;;;9.40;99.90;;;;;;4935533;29;20086;-75
2021/12/18 05:47:40;;;;;;;4.00;3.60;;;9.40;99.90;;;;;;4934803;29;20030;-74
2021/12/18 05:50:07;;;;;;;4.45;4.05;;;9.40;99.90;;;;;;4935149;29;20388;-75
2021/12/18 05:52:33;;;;;;;4.43;3.67;;;9.40;99.90;;;;;;4935446;29;20023;-75
2021/12/18 05:54:59;;;;;;;6.93;4.22;;;9.30;99.90;;;;;;4934573;29;20037;-74
2021/12/18 05:57:24;;;;;;;4.28;3.80;;;9.20;99.90;;;;;;4952334;29;20380;-74
2021/12/18 05:59:50;;;;;;;4.80;3.65;;;9.20;99.90;;;;;;4952333;28;20027;-74
2021/12/18 06:02:16;;;;;;;4.30;3.67;;;9.20;99.90;;;;;;4934544;29;20023;-75
2021/12/18 06:04:42;;;;;;;3.63;2.80;;;9.30;99.90;;;;;;4952556;28;20461;-74
2021/12/18 06:07:16;;;;;;;3.50;3.20;;;9.30;99.90;;;;;;4952204;29;20023;-74
2021/12/18 06:09:41;;;;;;;4.35;3.60;;;9.40;99.90;;;;;;4951439;28;20023;-74
2021/12/18 06:12:07;;;;;;;3.90;3.50;;;9.40;99.90;;;;;;4935204;29;20031;-75
2021/12/18 06:14:33;;;;;;;3.50;3.15;;;9.40;99.90;;;;;;4934717;29;20483;-75
2021/12/18 06:16:59;;;;;;;3.72;3.28;;;9.30;99.90;;;;;;4951541;28;20083;-74
2021/12/18 06:19:24;;;;;;;3.40;3.10;;;9.30;99.90;;;;;;4951911;29;20045;-74
2021/12/18 06:21:50;;;;;;;2.92;2.60;;;9.30;99.90;;;;;;4934499;29;20031;-74
2021/12/18 06:24:15;;;;;;;3.65;3.03;;;9.30;99.90;;;;;;4935045;29;20038;-79
2021/12/18 06:26:42;;;;;;;2.53;2.28;;;9.30;99.90;;;;;;4952020;29;20066;-77
2021/12/18 06:29:07;;;;;;;3.00;2.70;;;9.20;99.90;;;;;;4951299;28;20043;-75
2021/12/18 06:31:34;;;;;;;2.72;2.53;;;9.10;99.90;;;;;;4934613;29;20464;-77
2021/12/18 06:33:59;;;;;;;2.53;2.05;;;9.00;99.90;;;;;;4952410;29;20070;-74
2021/12/18 06:36:25;;;;;;;2.72;2.53;;;9.00;99.90;;;;;;4934515;29;20408;-74
2021/12/18 06:38:51;;;;;;;2.40;2.20;;;9.00;99.90;;;;;;4934829;29;20432;-78
2021/12/18 06:41:16;;;;;;;2.10;1.90;;;9.00;99.90;;;;;;4938287;29;20035;-75
2021/12/18 06:43:42;;;;;;;3.13;2.05;;;8.90;99.90;;;;;;4938036;29;20079;-74
2021/12/18 06:46:08;;;;;;;1.80;1.70;;;9.00;99.90;;;;;;4938778;29;20463;-74
2021/12/18 06:48:34;;;;;;;1.60;1.50;;;8.90;99.90;;;;;;4953359;29;20031;-75
2021/12/18 06:50:59;;;;;;;1.70;1.60;;;8.90;99.90;;;;;;4953703;29;20019;-75
2021/12/18 06:53:25;;;;;;;1.58;1.48;;;8.80;99.90;;;;;;4938530;29;20472;-75
2021/12/18 06:55:51;;;;;;;1.23;1.13;;;8.90;99.90;;;;;;4955376;29;20480;-74
2021/12/18 06:58:17;;;;;;;1.70;1.60;;;8.90;99.90;;;;;;4954517;29;20027;-74
2021/12/18 07:00:42;;;;;;;1.67;1.58;;;8.90;99.90;;;;;;4955152;29;20054;-74
2021/12/18 07:03:08;;;;;;;2.15;1.67;;;8.80;99.90;;;;;;4955823;29;20034;-75
2021/12/18 07:05:33;;;;;;;1.80;1.70;;;8.80;99.90;;;;;;4937793;29;20078;-74
2021/12/18 07:07:59;;;;;;;1.50;1.40;;;8.80;99.90;;;;;;4944296;29;20505;-74
2021/12/18 07:10:25;;;;;;;1.63;1.52;;;8.80;99.90;;;;;;4937883;29;20392;-74
2021/12/18 07:12:50;;;;;;;1.65;1.55;;;8.80;99.90;;;;;;4937825;29;20031;-79
2021/12/18 07:15:16;;;;;;;1.02;1.02;;;8.80;99.90;;;;;;4955538;29;20035;-79
2021/12/18 07:17:41;;;;;;;1.60;1.50;;;8.80;99.90;;;;;;4935855;28;20082;-78
2021/12/18 07:20:08;;;;;;;1.90;1.35;;;8.80;99.90;;;;;;4933559;29;20043;-83
2021/12/18 07:22:34;;;;;;;1.20;1.10;;;8.70;99.90;;;;;;4953052;29;20444;-76
2021/12/18 07:25:00;;;;;;;1.33;1.23;;;8.70;99.90;;;;;;4954559;29;20062;-74
2021/12/18 07:27:25;;;;;;;1.70;1.60;;;8.70;99.90;;;;;;4953929;28;20054;-75
2021/12/18 07:29:51;;;;;;;1.55;1.45;;;8.70;99.90;;;;;;4952779;28;20062;-75
2021/12/18 07:32:17;;;;;;;1.50;1.30;;;8.70;99.90;;;;;;4937181;29;20171;-79
2021/12/18 07:34:42;;;;;;;1.20;1.10;;;8.60;99.90;;;;;;4953975;28;20383;-75
2021/12/18 07:37:08;;;;;;;1.48;1.38;;;8.60;99.90;;;;;;4953627;28;20023;-75
2021/12/18 07:39:34;;;;;;;11.90;1.75;;;8.60;99.90;;;;;;4936359;29;20035;-82
2021/12/18 07:41:59;;;;;;;1.35;1.25;;;8.50;99.90;;;;;;4936873;29;20037;-77
2021/12/18 07:44:25;;;;;;;1.00;1.00;;;8.50;99.90;;;;;;4953344;28;20023;-75
2021/12/18 07:46:51;;;;;;;1.48;1.38;;;8.40;99.90;;;;;;4937146;29;20118;-75
2021/12/18 07:49:16;;;;;;;1.45;1.35;;;8.40;99.90;;;;;;4954383;29;20035;-76
2021/12/18 07:51:42;;;;;;;1.00;1.00;;;8.50;99.90;;;;;;4950095;28;20015;-73
2021/12/18 07:54:08;;;;;;;1.30;1.20;;;8.50;99.90;;;;;;4936784;29;20388;-74
2021/12/18 07:56:35;;;;;;;1.30;1.20;;;8.40;99.90;;;;;;4937157;29;20031;-74
2021/12/18 07:59:02;;;;;;;1.67;1.58;;;8.40;99.90;;;;;;4952013;28;20506;-78
2021/12/18 08:01:27;;;;;;;1.10;1.02;;;8.40;99.90;;;;;;4932915;28;20154;-73
2021/12/18 08:03:53;;;;;;;1.38;1.27;;;8.40;99.90;;;;;;4956700;28;20101;-74
2021/12/18 08:06:21;;;;;;;1.63;1.52;;;8.40;99.90;;;;;;4933185;29;20042;-79
2021/12/18 08:08:48;;;;;;;1.45;1.35;;;8.40;99.90;;;;;;4942464;28;20019;-75
2021/12/18 08:11:14;;;;;;;1.48;1.38;;;8.40;99.90;;;;;;4940663;29;20035;-74
2021/12/18 08:13:40;;;;;;;1.40;1.30;;;8.40;99.90;;;;;;4929536;29;20130;-76
2021/12/18 08:16:06;;;;;;;1.70;1.60;;;8.40;99.90;;;;;;4916334;29;20489;-73
2021/12/18 08:18:31;;;;;;;1.77;1.67;;;8.50;99.90;;;;;;4946063;29;20035;-78
2021/12/18 08:20:57;;;;;;;1.67;1.58;;;8.50;99.90;;;;;;4958805;28;20020;-77
2021/12/18 08:23:23;;;;;;;1.40;1.30;;;8.50;99.90;;;;;;4922881;29;20031;-77
2021/12/18 08:25:49;;;;;;;1.35;1.30;;;8.50;99.90;;;;;;4952588;28;20392;-77
2021/12/18 08:28:15;;;;;;;1.40;1.30;;;8.60;99.90;;;;;;4951653;29;20027;-74
2021/12/18 08:30:41;;;;;;;1.92;1.45;;;8.60;99.90;;;;;;4949590;28;20043;-73
2021/12/18 08:33:06;;;;;;;1.55;1.40;;;8.60;99.90;;;;;;4919711;28;20036;-80
2021/12/18 08:35:33;;;;;;;1.85;1.75;;;8.60;99.90;;;;;;4931551;29;20038;-80
2021/12/18 08:38:00;;;;;;;1.77;1.67;;;8.60;99.90;;;;;;4956442;28;20475;-74
2021/12/18 08:40:28;;;;;;;1.50;1.40;;;8.50;99.90;;;;;;4916453;28;20126;-76
2021/12/18 08:42:54;;;;;;;1.38;1.27;;;8.50;99.90;;;;;;4935383;29;20035;-79
2021/12/18 08:45:20;;;;;;;2.00;1.90;;;8.50;99.90;;;;;;4952450;29;20038;-74
2021/12/18 08:47:46;;;;;;;1.65;1.55;;;8.50;99.90;;;;;;4951779;29;20102;-75
2021/12/18 08:50:17;;;;;;;2.00;1.90;;;8.60;99.90;;;;;;4952785;29;20109;-72
2021/12/18 08:52:45;;;;;;;1.92;1.83;;;8.50;99.90;;;;;;4936508;29;20023;-76
2021/12/18 08:55:11;;;;;;;1.15;1.15;;;8.50;99.90;;;;;;4936481;29;20031;-79
2021/12/18 08:57:37;;;;;;;1.30;1.20;;;8.60;99.90;;;;;;4935546;29;20058;-75
2021/12/18 09:00:09;;;;;;;1.50;1.40;;;8.50;99.90;;;;;;4949959;28;20067;-74
2021/12/18 09:02:35;;;;;;;2.20;1.92;;;8.60;99.90;;;;;;4949667;28;20075;-77
2021/12/18 09:05:01;;;;;;;1.60;1.50;;;8.60;99.90;;;;;;4949868;28;20045;-80
2021/12/18 09:07:27;;;;;;;1.50;1.40;;;8.60;99.90;;;;;;4929096;29;20023;-77
2021/12/18 09:09:52;;;;;;;1.55;1.45;;;8.60;99.90;;;;;;4932494;29;20020;-75
2021/12/18 09:12:18;;;;;;;1.73;1.40;;;8.60;99.90;;;;;;4942431;29;20050;-78
2021/12/18 09:14:44;;;;;;;1.40;1.30;;;8.60;99.90;;;;;;4950839;29;20561;-77
2021/12/18 09:17:10;;;;;;;1.75;1.65;;;8.60;99.90;;;;;;4935047;29;20034;-77
2021/12/18 09:19:36;;;;;;;1.52;1.38;;;8.60;99.90;;;;;;4950592;28;20102;-77
2021/12/18 09:22:04;;;;;;;1.48;1.38;;;8.70;99.90;;;;;;4951929;29;20019;-74
2021/12/18 09:24:30;;;;;;;1.20;1.20;;;8.70;99.90;;;;;;4951144;29;20087;-75
2021/12/18 09:26:55;;;;;;;1.48;1.33;;;8.80;99.90;;;;;;4953057;28;20050;-75
2021/12/18 09:29:21;;;;;;;1.60;1.20;;;8.80;99.90;;;;;;4935351;29;20051;-73
2021/12/18 09:31:46;;;;;;;1.50;1.40;;;8.80;99.90;;;;;;4952056;28;20051;-72
2021/12/18 09:34:12;;;;;;;1.33;1.25;;;8.80;99.90;;;;;;4952462;28;20103;-76
2021/12/18 09:36:38;;;;;;;1.95;1.85;;;8.80;99.90;;;;;;4952781;29;20023;-75
2021/12/18 09:39:05;;;;;;;1.60;1.50;;;8.70;99.90;;;;;;4951783;29;20035;-76
2021/12/18 09:41:31;;;;;;;1.23;1.15;;;8.70;99.90;;;;;;4952550;29;20476;-74
2021/12/18 09:43:56;;;;;;;1.27;1.20;;;8.70;99.90;;;;;;4952542;29;20042;-74
2021/12/18 09:46:22;;;;;;;1.70;1.60;;;8.70;99.90;;;;;;4934979;29;20027;-75
2021/12/18 09:48:48;;;;;;;1.33;1.23;;;8.70;99.90;;;;;;4952394;29;20023;-74
2021/12/18 09:51:24;;;;;;;1.23;1.20;;;8.70;99.90;;;;;;4952657;28;20085;-74
2021/12/18 09:53:52;;;;;;;1.20;1.20;;;8.70;99.90;;;;;;4952126;29;20460;-75
2021/12/18 09:56:18;;;;;;;1.70;1.60;;;8.80;99.90;;;;;;4952499;28;20054;-74
2021/12/18 09:58:43;;;;;;;2.10;2.00;;;8.80;99.90;;;;;;4934694;29;20058;-74
2021/12/18 10:01:09;;;;;;;2.22;2.10;;;8.80;99.90;;;;;;4951769;29;20043;-74
2021/12/18 10:03:51;;;;;;;3.25;2.00;;;8.80;99.90;;;;;;4952111;28;20102;-75
2021/12/18 10:06:41;;;;;;;1.88;1.77;;;8.80;99.90;;;;;;4952349;29;20539;-73
2021/12/18 10:09:17;;;;;;;1.48;1.33;;;8.90;99.90;;;;;;4950782;28;20065;-74
2021/12/18 10:11:51;;;;;;;1.67;1.52;;;8.90;99.90;;;;;;4952188;29;20035;-74
2021/12/18 10:14:19;;;;;;;1.90;1.80;;;8.90;99.90;;;;;;4952718;28;20027;-74
2021/12/18 10:16:47;;;;;;;3.05;1.90;;;8.90;99.90;;;;;;4956106;28;20031;-73
2021/12/18 10:19:35;;;;;;;2.03;1.83;;;8.80;99.90;;;;;;4956145;28;20039;-73
2021/12/18 10:22:06;;;;;;;2.15;1.95;;;8.80;99.90;;;;;;4955758;29;20032;-72
2021/12/18 10:24:34;;;;;;;1.95;1.77;;;8.80;99.90;;;;;;4956049;29;20023;-73
2021/12/18 10:27:01;;;;;;;1.70;1.60;;;8.80;99.90;;;;;;4956286;28;20027;-73
2021/12/18 10:29:29;;;;;;;1.67;1.58;;;8.90;99.90;;;;;;4953687;29;20050;-73
2021/12/18 10:31:55;;;;;;;1.50;1.40;;;8.90;99.90;;;;;;4956239;29;20059;-75
2021/12/18 10:34:22;;;;;;;1.65;1.50;;;8.90;99.90;;;;;;4954521;29;20066;-74
2021/12/18 10:37:09;;;;;;;1.40;1.30;;;8.90;99.90;;;;;;4955445;29;20034;-73
2021/12/18 10:39:37;;;;;;;1.75;1.60;;;8.80;99.90;;;;;;4938645;29;20035;-74
2021/12/18 10:42:39;;;;;;;1.40;1.30;;;8.90;99.90;;;;;;4955636;28;20023;-74
2021/12/18 10:45:10;;;;;;;2.33;1.45;;;8.80;99.90;;;;;;4954708;28;20027;-74
2021/12/18 10:47:47;;;;;;;1.30;1.30;;;8.70;99.90;;;;;;4956006;28;20027;-75
2021/12/18 10:50:23;;;;;;;1.80;1.70;;;8.70;99.90;;;;;;4953651;29;20031;-75
2021/12/18 10:53:06;;;;;;;1.70;1.60;;;8.70;99.90;;;;;;4938697;29;20027;-74
2021/12/18 10:55:33;;;;;;;1.13;1.02;;;8.70;99.90;;;;;;4955599;29;20027;-75
2021/12/18 10:57:59;;;;;;;1.65;1.55;;;8.70;99.90;;;;;;4937782;29;20023;-74
2021/12/18 11:00:32;;;;;;;1.40;1.30;;;8.70;99.90;;;;;;4953790;28;20062;-74
2021/12/18 11:02:57;;;;;;;1.42;1.33;;;8.80;99.90;;;;;;4955314;29;20030;-75
2021/12/18 11:05:23;;;;;;;1.55;1.45;;;8.80;99.90;;;;;;4954076;29;20031;-74
2021/12/18 11:08:07;;;;;;;1.92;1.73;;;8.80;99.90;;;;;;4955602;29;20027;-75
2021/12/18 11:10:43;;;;;;;1.60;1.50;;;8.80;99.90;;;;;;4953226;29;20516;-75
2021/12/18 11:15:56;;;;;;;2.83;1.50;;;8.90;99.90;;;;;;4955739;29;20082;-75
2021/12/18 11:18:22;;;;;;;2.28;1.45;;;8.90;99.90;;;;;;4954677;28;20019;-75
2021/12/18 11:20:53;;;;;;;1.50;1.40;;;8.90;99.90;;;;;;4953667;28;20075;-74
2021/12/18 11:23:31;;;;;;;1.67;1.55;;;9.00;99.90;;;;;;4953823;28;20035;-74
2021/12/18 11:25:58;;;;;;;1.73;1.63;;;9.00;99.90;;;;;;4953566;28;20035;-74
2021/12/18 11:28:27;;;;;;;1.30;1.20;;;9.00;99.90;;;;;;4953793;28;20059;-76
2021/12/18 11:30:53;;;;;;;1.50;1.40;;;9.00;99.90;;;;;;4955382;29;20043;-75
2021/12/18 11:33:20;;;;;;;1.50;1.40;;;9.10;99.90;;;;;;4937139;29;20055;-74
2021/12/18 11:35:46;;;;;;;2.00;1.90;;;9.10;99.90;;;;;;4953379;29;20054;-73
2021/12/18 11:38:15;;;;;;;1.88;1.77;;;9.10;99.90;;;;;;4952934;29;20027;-73
2021/12/18 11:40:41;;;;;;;1.90;1.70;;;9.10;99.90;;;;;;4953122;29;20039;-73
2021/12/18 11:43:26;;;;;;;1.83;1.70;;;9.10;99.90;;;;;;4955006;29;20484;-75
2021/12/18 11:45:51;;;;;;;1.83;1.73;;;9.10;99.90;;;;;;4937185;29;20027;-74
2021/12/18 11:48:17;;;;;;;1.90;1.80;;;9.10;99.90;;;;;;4937317;29;20031;-75
2021/12/18 11:50:42;;;;;;;1.83;1.73;;;9.00;99.90;;;;;;4937673;29;20360;-74
2021/12/18 11:53:16;;;;;;;1.90;1.80;;;9.00;99.90;;;;;;4953788;29;20464;-74
2021/12/18 11:55:51;;;;;;;1.80;1.70;;;9.00;99.90;;;;;;4954572;28;20028;-76
2021/12/18 11:58:32;;;;;;;1.50;1.40;;;9.10;99.90;;;;;;4937165;29;20126;-75
2021/12/18 12:01:05;;;;;;;1.70;1.60;;;9.00;99.90;;;;;;4936533;29;20031;-74
2021/12/18 12:03:33;;;;;;;2.00;1.85;;;9.10;99.90;;;;;;4953033;28;20437;-76
2021/12/18 12:06:01;;;;;;;1.50;1.40;;;9.10;99.90;;;;;;4954365;29;20030;-76
2021/12/18 12:08:32;;;;;;;1.30;1.20;;;9.10;99.90;;;;;;4936075;29;20062;-74
2021/12/18 12:11:18;;;;;;;1.50;1.40;;;9.10;99.90;;;;;;4937179;29;20117;-74
2021/12/18 12:14:13;;;;;;;1.25;1.15;;;9.00;99.90;;;;;;4953582;28;20435;-73
2021/12/18 12:16:45;;;;;;;3.28;1.80;;;9.00;99.90;;;;;;4953996;28;20019;-73
2021/12/18 12:19:33;;;;;;;1.90;1.52;;;9.00;99.90;;;;;;4936990;29;20045;-74
2021/12/18 12:21:59;;;;;;;1.45;1.35;;;9.10;99.90;;;;;;4952543;29;20039;-75
2021/12/18 12:24:31;;;;;;;2.63;1.90;;;9.10;99.90;;;;;;4953913;29;20424;-74
2021/12/18 12:27:24;;;;;;;1.80;1.48;;;9.10;99.90;;;;;;4936627;29;20059;-74
2021/12/18 12:29:51;;;;;;;1.83;1.42;;;9.20;99.90;;;;;;4953964;29;20055;-75
2021/12/18 12:32:20;;;;;;;1.15;1.10;;;9.30;99.90;;;;;;4953922;29;20035;-75
2021/12/18 12:35:13;;;;;;;1.00;1.00;;;9.40;99.90;;;;;;4953235;29;20031;-75
2021/12/18 12:37:50;;;;;;;1.30;1.08;;;9.40;99.90;;;;;;4936517;29;20431;-75
2021/12/18 12:40:32;;;;;;;1.30;1.20;;;9.40;99.90;;;;;;4952390;28;20039;-75
2021/12/18 12:43:12;;;;;;;1.17;1.08;;;9.40;99.90;;;;;;4951772;28;20026;-77
2021/12/18 12:45:40;;;;;;;1.40;1.30;;;9.40;99.90;;;;;;4953666;29;20139;-75
2021/12/18 12:48:06;;;;;;;1.00;1.00;;;9.50;99.90;;;;;;4952520;29;20106;-76
2021/12/18 12:50:32;;;;;;;1.17;1.10;;;9.50;99.90;;;;;;4952757;29;20114;-76
2021/12/18 12:53:09;;;;;;;1.13;1.02;;;9.40;99.90;;;;;;4954037;29;20349;-75
2021/12/18 12:55:42;;;;;;;1.30;1.20;;;9.50;99.90;;;;;;4951406;28;20042;-76
2021/12/18 12:58:25;;;;;;;1.05;0.93;;;9.50;99.90;;;;;;4953565;28;20038;-78
2021/12/18 13:00:55;;;;;;;0.90;0.90;;;9.50;99.90;;;;;;4951973;29;20035;-76
2021/12/18 13:03:42;;;;;;;1.20;1.00;;;9.60;99.90;;;;;;4952744;28;20027;-75
2021/12/18 13:06:16;;;;;;;1.23;1.13;;;9.60;99.90;;;;;;4951698;29;20039;-74
2021/12/18 13:08:44;;;;;;;0.90;0.90;;;9.70;99.90;;;;;;4952935;29;20027;-75
2021/12/18 13:11:22;;;;;;;0.98;0.98;;;9.70;99.90;;;;;;4951635;29;20067;-76
2021/12/18 13:13:48;;;;;;;1.48;1.00;;;9.70;99.90;;;;;;4951959;29;20019;-78
2021/12/18 13:16:17;;;;;;;1.52;1.00;;;9.60;99.90;;;;;;4953197;28;20086;-75
2021/12/18 13:18:52;;;;;;;2.15;1.35;;;9.60;99.90;;;;;;4952330;29;20019;-77
2021/12/18 13:21:23;;;;;;;1.42;1.33;;;9.60;99.90;;;;;;4935933;29;20059;-78
2021/12/18 13:23:53;;;;;;;1.40;1.30;;;9.60;99.90;;;;;;4952509;28;20238;-78
2021/12/18 13:26:30;;;;;;;1.38;1.27;;;9.60;99.90;;;;;;4935807;29;20123;-77
2021/12/18 13:29:08;;;;;;;1.33;1.23;;;9.60;99.90;;;;;;4952792;29;20082;-77
2021/12/18 13:31:43;;;;;;;1.00;1.00;;;9.60;99.90;;;;;;4952060;29;20031;-76
2021/12/18 13:34:14;;;;;;;1.00;0.90;;;9.60;99.90;;;;;;4951773;28;20114;-76
2021/12/18 13:36:42;;;;;;;1.00;1.00;;;9.50;99.90;;;;;;4935722;29;20102;-77
2021/12/18 13:39:10;;;;;;;0.82;0.82;;;9.50;99.90;;;;;;4950716;29;20078;-75
2021/12/18 13:41:36;;;;;;;1.17;1.08;;;9.60;99.90;;;;;;4952504;29;20027;-74
2021/12/18 13:44:02;;;;;;;1.50;1.20;;;9.60;99.90;;;;;;4935104;28;20082;-77
2021/12/18 13:46:29;;;;;;;1.50;1.20;;;9.70;99.90;;;;;;4951773;28;20029;-76